createdAt,value
2017-08-31T00:01:09.194Z,19.2
2017-08-31T00:02:27.880Z,19.2
2017-08-31T00:03:46.548Z,19.2
2017-08-31T00:05:05.210Z,19.2
2017-08-31T00:06:23.934Z,19.2
2017-08-31T00:07:42.663Z,19.1
2017-08-31T00:09:01.386Z,19.1
2017-08-31T00:10:20.059Z,19.1
2017-08-31T00:11:38.772Z,19.1
2017-08-31T00:12:57.530Z,19.1
2017-08-31T00:14:16.236Z,19
2017-08-31T00:15:34.906Z,19.1
2017-08-31T00:16:53.567Z,19.1
2017-08-31T00:18:12.250Z,19.1
2017-08-31T00:19:30.921Z,19.1
2017-08-31T00:20:49.603Z,19.1
2017-08-31T00:22:08.268Z,19.1
2017-08-31T00:23:26.989Z,19
2017-08-31T00:24:45.658Z,19
2017-08-31T00:26:04.372Z,19
2017-08-31T00:27:23.085Z,19
2017-08-31T00:28:41.798Z,18.9
2017-08-31T00:30:00.517Z,18.9
2017-08-31T00:31:19.211Z,18.9
2017-08-31T00:32:37.942Z,18.9
2017-08-31T00:33:56.632Z,18.9
2017-08-31T00:35:15.303Z,18.9
2017-08-31T00:36:33.999Z,18.9
2017-08-31T00:37:52.663Z,19
2017-08-31T00:39:11.365Z,19
2017-08-31T00:40:30.042Z,19
2017-08-31T00:41:48.778Z,19
2017-08-31T00:43:07.477Z,19
2017-08-31T00:44:26.174Z,19
2017-08-31T00:45:44.838Z,19
2017-08-31T00:47:03.520Z,18.9
2017-08-31T00:48:22.180Z,18.9
2017-08-31T00:49:40.870Z,18.8
2017-08-31T00:50:59.529Z,18.8
2017-08-31T00:52:18.184Z,18.7
2017-08-31T00:53:36.864Z,18.7
2017-08-31T00:54:55.547Z,18.7
2017-08-31T00:56:14.262Z,18.6
2017-08-31T00:57:32.928Z,18.6
2017-08-31T00:58:51.592Z,18.6
2017-08-31T01:00:10.265Z,18.6
2017-08-31T01:01:28.968Z,18.5
2017-08-31T01:02:47.632Z,18.5
2017-08-31T01:04:06.297Z,18.5
2017-08-31T01:05:25.016Z,18.5
2017-08-31T01:06:43.710Z,18.5
2017-08-31T01:08:02.373Z,18.4
2017-08-31T01:09:21.080Z,18.4
2017-08-31T01:10:39.768Z,18.4
2017-08-31T01:11:58.434Z,18.4
2017-08-31T01:13:17.132Z,18.3
2017-08-31T01:14:35.807Z,18.3
2017-08-31T01:15:54.493Z,18.3
2017-08-31T01:17:13.208Z,18.3
2017-08-31T01:18:31.869Z,18.2
2017-08-31T01:19:50.527Z,18.2
2017-08-31T01:21:09.203Z,18.2
2017-08-31T01:22:27.877Z,18.2
2017-08-31T01:23:46.569Z,18.1
2017-08-31T01:25:05.263Z,18.1
2017-08-31T01:26:23.992Z,18.1
2017-08-31T01:27:42.657Z,18.1
2017-08-31T01:29:01.325Z,18.1
2017-08-31T01:30:19.993Z,18
2017-08-31T01:31:38.711Z,18
2017-08-31T01:32:57.367Z,18
2017-08-31T01:34:16.082Z,18
2017-08-31T01:35:34.748Z,17.9
2017-08-31T01:36:53.479Z,17.9
2017-08-31T01:38:12.172Z,17.9
2017-08-31T01:39:30.830Z,17.9
2017-08-31T01:40:49.492Z,17.9
2017-08-31T01:42:08.168Z,17.9
2017-08-31T01:43:26.836Z,17.9
2017-08-31T01:44:45.533Z,17.9
2017-08-31T01:46:04.200Z,17.8
2017-08-31T01:47:22.910Z,17.8
2017-08-31T01:48:41.578Z,17.8
2017-08-31T01:50:00.244Z,17.8
2017-08-31T01:51:18.910Z,17.8
2017-08-31T01:52:37.650Z,17.8
2017-08-31T01:53:56.343Z,17.7
2017-08-31T01:55:15.044Z,17.7
2017-08-31T01:56:33.741Z,17.7
2017-08-31T01:57:52.426Z,17.7
2017-08-31T01:59:11.091Z,17.6
2017-08-31T02:00:29.813Z,17.5
2017-08-31T02:01:48.494Z,17.5
2017-08-31T02:03:07.185Z,17.5
2017-08-31T02:04:25.851Z,17.4
2017-08-31T02:05:44.513Z,17.4
2017-08-31T02:07:03.228Z,17.4
2017-08-31T02:08:21.919Z,17.4
2017-08-31T02:09:40.584Z,17.4
2017-08-31T02:10:59.251Z,17.4
2017-08-31T02:12:17.910Z,17.4
2017-08-31T02:13:36.598Z,17.4
2017-08-31T02:14:55.282Z,17.4
2017-08-31T02:16:13.956Z,17.4
2017-08-31T02:17:32.629Z,17.4
2017-08-31T02:18:51.319Z,17.4
2017-08-31T02:20:09.984Z,17.4
2017-08-31T02:21:28.679Z,17.4
2017-08-31T02:22:47.342Z,17.4
2017-08-31T02:24:06.049Z,17.4
2017-08-31T02:25:24.715Z,17.5
2017-08-31T02:26:43.394Z,17.5
2017-08-31T02:28:02.068Z,17.5
2017-08-31T02:29:20.749Z,17.4
2017-08-31T02:30:39.414Z,17.4
2017-08-31T02:31:58.128Z,17.4
2017-08-31T02:33:16.803Z,17.4
2017-08-31T02:34:35.489Z,17.4
2017-08-31T02:35:54.183Z,17.4
2017-08-31T02:37:12.850Z,17.4
2017-08-31T02:38:31.537Z,17.3
2017-08-31T02:39:50.218Z,17.3
2017-08-31T02:41:08.888Z,17.3
2017-08-31T02:42:27.575Z,17.3
2017-08-31T02:43:46.242Z,17.2
2017-08-31T02:45:04.938Z,17.2
2017-08-31T02:46:23.629Z,17.1
2017-08-31T02:47:42.296Z,17.1
2017-08-31T02:49:01.014Z,17.1
2017-08-31T02:50:19.754Z,17.1
2017-08-31T02:51:38.452Z,17.1
2017-08-31T02:52:57.120Z,17.1
2017-08-31T02:54:15.793Z,17.1
2017-08-31T02:55:34.471Z,17.1
2017-08-31T02:56:53.182Z,17.1
2017-08-31T02:58:11.870Z,17.1
2017-08-31T02:59:30.573Z,17.1
2017-08-31T03:00:49.247Z,17
2017-08-31T03:02:07.952Z,17
2017-08-31T03:03:26.619Z,16.9
2017-08-31T03:04:45.282Z,16.9
2017-08-31T03:06:03.974Z,16.9
2017-08-31T03:07:22.631Z,16.8
2017-08-31T03:08:41.346Z,16.8
2017-08-31T03:10:00.015Z,16.8
2017-08-31T03:11:18.746Z,16.8
2017-08-31T03:12:37.406Z,16.8
2017-08-31T03:13:56.074Z,16.8
2017-08-31T03:15:14.776Z,16.8
2017-08-31T03:16:33.486Z,16.8
2017-08-31T03:17:52.154Z,16.8
2017-08-31T03:19:10.864Z,16.8
2017-08-31T03:20:29.534Z,16.8
2017-08-31T03:21:48.255Z,16.8
2017-08-31T03:23:06.916Z,16.8
2017-08-31T03:24:25.572Z,16.8
2017-08-31T03:25:44.235Z,16.8
2017-08-31T03:27:02.900Z,16.9
2017-08-31T03:28:21.567Z,16.9
2017-08-31T03:29:40.282Z,16.8
2017-08-31T03:30:58.948Z,16.8
2017-08-31T03:32:17.630Z,16.8
2017-08-31T03:33:36.298Z,16.8
2017-08-31T03:34:55.011Z,16.8
2017-08-31T03:36:13.677Z,16.8
2017-08-31T03:37:32.365Z,16.8
2017-08-31T03:38:51.026Z,16.7
2017-08-31T03:40:09.689Z,16.7
2017-08-31T03:41:28.388Z,16.7
2017-08-31T03:42:47.061Z,16.7
2017-08-31T03:44:05.726Z,16.7
2017-08-31T03:45:24.430Z,16.7
2017-08-31T03:46:43.117Z,16.8
2017-08-31T03:48:01.838Z,16.8
2017-08-31T03:49:20.553Z,16.8
2017-08-31T03:50:39.212Z,16.8
2017-08-31T03:51:57.881Z,16.8
2017-08-31T03:53:16.638Z,16.8
2017-08-31T03:54:35.320Z,16.6
2017-08-31T03:55:53.998Z,16.6
2017-08-31T03:57:12.705Z,16.6
2017-08-31T03:58:31.442Z,16.7
2017-08-31T03:59:50.150Z,16.6
2017-08-31T04:01:08.815Z,16.6
2017-08-31T04:02:27.507Z,16.6
2017-08-31T04:03:46.192Z,16.6
2017-08-31T04:05:04.898Z,16.6
2017-08-31T04:06:23.563Z,16.5
2017-08-31T04:07:42.229Z,16.5
2017-08-31T04:09:00.909Z,16.5
2017-08-31T04:10:19.595Z,16.5
2017-08-31T04:11:38.319Z,16.5
2017-08-31T04:12:56.998Z,16.5
2017-08-31T04:14:15.705Z,16.4
2017-08-31T04:15:34.368Z,16.4
2017-08-31T04:16:53.062Z,16.4
2017-08-31T04:18:11.732Z,16.4
2017-08-31T04:19:30.473Z,16.4
2017-08-31T04:20:49.137Z,16.4
2017-08-31T04:22:07.811Z,16.4
2017-08-31T04:23:26.507Z,16.4
2017-08-31T04:24:45.210Z,16.4
2017-08-31T04:26:03.878Z,16.4
2017-08-31T04:27:22.537Z,16.5
2017-08-31T04:28:41.209Z,16.5
2017-08-31T04:29:59.891Z,16.5
2017-08-31T04:31:18.560Z,16.4
2017-08-31T04:32:37.284Z,16.4
2017-08-31T04:33:56.003Z,16.4
2017-08-31T04:35:14.681Z,16.4
2017-08-31T04:36:33.378Z,16.4
2017-08-31T04:37:52.039Z,16.4
2017-08-31T04:39:10.762Z,16.3
2017-08-31T04:40:29.498Z,16.3
2017-08-31T04:41:48.215Z,16.3
2017-08-31T04:43:06.882Z,16.3
2017-08-31T04:44:25.552Z,16.3
2017-08-31T04:45:44.240Z,16.3
2017-08-31T04:47:02.930Z,16.3
2017-08-31T04:48:21.646Z,16.3
2017-08-31T04:49:40.305Z,16.3
2017-08-31T04:50:58.992Z,16.4
2017-08-31T04:52:17.657Z,16.4
2017-08-31T04:53:36.374Z,16.4
2017-08-31T04:54:55.048Z,16.3
2017-08-31T04:56:13.721Z,16.4
2017-08-31T04:57:32.424Z,16.5
2017-08-31T04:58:51.091Z,16.5
2017-08-31T05:00:09.758Z,16.5
2017-08-31T05:01:28.482Z,16.6
2017-08-31T05:02:47.144Z,16.6
2017-08-31T05:04:05.808Z,16.6
2017-08-31T05:05:24.478Z,16.6
2017-08-31T05:06:43.195Z,16.6
2017-08-31T05:08:01.896Z,16.6
2017-08-31T05:09:20.607Z,16.6
2017-08-31T05:10:39.276Z,16.6
2017-08-31T05:11:57.979Z,16.6
2017-08-31T05:13:16.645Z,16.6
2017-08-31T05:14:35.343Z,16.7
2017-08-31T05:15:54.049Z,16.7
2017-08-31T05:17:12.740Z,16.7
2017-08-31T05:18:31.399Z,16.6
2017-08-31T05:19:50.065Z,16.7
2017-08-31T05:21:08.738Z,16.7
2017-08-31T05:22:27.462Z,16.8
2017-08-31T05:23:46.188Z,16.9
2017-08-31T05:25:04.857Z,16.9
2017-08-31T05:26:23.515Z,16.9
2017-08-31T05:27:42.252Z,16.9
2017-08-31T05:29:00.924Z,17
2017-08-31T05:30:19.594Z,17
2017-08-31T05:31:38.255Z,17
2017-08-31T05:32:56.978Z,17.1
2017-08-31T05:34:15.636Z,17.1
2017-08-31T05:35:34.298Z,17
2017-08-31T05:36:52.967Z,17
2017-08-31T05:38:11.698Z,17
2017-08-31T05:39:30.362Z,17
2017-08-31T05:40:49.029Z,17.1
2017-08-31T05:42:07.768Z,17.1
2017-08-31T05:43:26.446Z,17.1
2017-08-31T05:44:45.142Z,17.1
2017-08-31T05:46:03.809Z,17.2
2017-08-31T05:47:22.486Z,17.2
2017-08-31T05:48:41.247Z,17.2
2017-08-31T05:49:59.903Z,17.2
2017-08-31T05:51:18.572Z,17.2
2017-08-31T05:52:37.238Z,17.3
2017-08-31T05:53:55.925Z,17.3
2017-08-31T05:55:14.598Z,17.4
2017-08-31T05:56:33.283Z,17.4
2017-08-31T05:57:51.945Z,17.4
2017-08-31T05:59:10.619Z,17.4
2017-08-31T06:00:29.277Z,17.5
2017-08-31T06:01:47.985Z,17.5
2017-08-31T06:03:06.708Z,17.5
2017-08-31T06:04:25.379Z,17.5
2017-08-31T06:05:44.069Z,17.5
2017-08-31T06:07:02.763Z,17.6
2017-08-31T06:08:21.421Z,17.6
2017-08-31T06:09:40.099Z,17.7
2017-08-31T06:10:58.804Z,17.8
2017-08-31T06:12:17.484Z,17.8
2017-08-31T06:13:36.147Z,17.9
2017-08-31T06:14:54.836Z,18
2017-08-31T06:16:13.502Z,18.1
2017-08-31T06:17:32.170Z,18.2
2017-08-31T06:18:50.850Z,18.4
2017-08-31T06:20:09.532Z,18.5
2017-08-31T06:21:28.216Z,18.5
2017-08-31T06:22:46.839Z,18.5
2017-08-31T06:24:05.495Z,18.5
2017-08-31T06:25:24.174Z,18.6
2017-08-31T06:26:42.892Z,18.5
2017-08-31T06:28:01.567Z,18.5
2017-08-31T06:29:20.231Z,18.5
2017-08-31T06:30:38.953Z,18.6
2017-08-31T06:31:57.649Z,18.6
2017-08-31T06:33:16.347Z,18.7
2017-08-31T06:34:35.062Z,18.8
2017-08-31T06:35:53.796Z,18.9
2017-08-31T06:37:12.490Z,18.9
2017-08-31T06:38:31.147Z,18.9
2017-08-31T06:39:49.856Z,19
2017-08-31T06:41:08.543Z,19.1
2017-08-31T06:42:27.210Z,19.2
2017-08-31T06:43:45.925Z,19.3
2017-08-31T06:45:04.639Z,19.3
2017-08-31T06:46:23.327Z,19.1
2017-08-31T06:47:42.025Z,19
2017-08-31T06:49:00.691Z,18.9
2017-08-31T06:50:19.351Z,19
2017-08-31T06:51:38.084Z,19.2
2017-08-31T06:52:56.748Z,19.6
2017-08-31T06:54:15.407Z,20
2017-08-31T06:55:34.073Z,20.5
2017-08-31T06:56:52.764Z,21
2017-08-31T06:58:11.428Z,21.2
2017-08-31T06:59:30.091Z,21.3
2017-08-31T07:00:48.753Z,21.4
2017-08-31T07:02:07.455Z,21.3
2017-08-31T07:03:26.141Z,21.1
2017-08-31T07:04:44.806Z,20.8
2017-08-31T07:06:03.486Z,20.7
2017-08-31T07:07:22.225Z,20.7
2017-08-31T07:08:40.888Z,20.9
2017-08-31T07:09:59.548Z,21.3
2017-08-31T07:11:18.229Z,21.7
2017-08-31T07:12:36.912Z,22
2017-08-31T07:13:55.635Z,22.2
2017-08-31T07:15:14.317Z,22.4
2017-08-31T07:16:32.980Z,22.4
2017-08-31T07:17:51.651Z,22.4
2017-08-31T07:19:10.324Z,22
2017-08-31T07:20:28.996Z,21.7
2017-08-31T07:21:47.662Z,21.4
2017-08-31T07:23:06.327Z,21.2
2017-08-31T07:24:24.992Z,21.2
2017-08-31T07:25:43.655Z,21.2
2017-08-31T07:27:02.344Z,21.1
2017-08-31T07:28:21.023Z,21.1
2017-08-31T07:29:39.737Z,20.9
2017-08-31T07:30:58.400Z,20.8
2017-08-31T07:32:17.076Z,20.8
2017-08-31T07:33:35.774Z,20.7
2017-08-31T07:34:54.488Z,20.6
2017-08-31T07:36:13.152Z,20.4
2017-08-31T07:37:31.844Z,20.3
2017-08-31T07:38:50.580Z,20.3
2017-08-31T07:40:09.246Z,20.4
2017-08-31T07:41:27.909Z,20.6
2017-08-31T07:42:46.587Z,20.7
2017-08-31T07:44:05.319Z,20.8
2017-08-31T07:45:24.023Z,20.9
2017-08-31T07:46:42.709Z,20.7
2017-08-31T07:48:01.373Z,20.6
2017-08-31T07:49:20.108Z,20.4
2017-08-31T07:50:38.773Z,20.3
2017-08-31T07:51:57.452Z,20.2
2017-08-31T07:53:16.113Z,20
2017-08-31T07:54:34.856Z,19.9
2017-08-31T07:55:53.565Z,19.9
2017-08-31T07:57:12.266Z,19.8
2017-08-31T07:58:30.930Z,19.8
2017-08-31T07:59:49.612Z,19.8
2017-08-31T08:01:08.280Z,19.8
2017-08-31T08:02:27.001Z,19.8
2017-08-31T08:03:45.668Z,19.8
2017-08-31T08:05:04.380Z,19.8
2017-08-31T08:06:23.046Z,19.8
2017-08-31T08:07:41.707Z,19.7
2017-08-31T08:09:00.376Z,19.6
2017-08-31T08:10:19.050Z,19.5
2017-08-31T08:11:37.723Z,19.3
2017-08-31T08:12:56.396Z,19.2
2017-08-31T08:14:15.055Z,19
2017-08-31T08:15:33.742Z,18.9
2017-08-31T08:16:52.403Z,18.7
2017-08-31T08:18:11.089Z,18.7
2017-08-31T08:19:29.809Z,18.6
2017-08-31T08:20:48.486Z,18.5
2017-08-31T08:22:07.183Z,18.5
2017-08-31T08:23:25.844Z,18.4
2017-08-31T08:24:44.510Z,18.4
2017-08-31T08:26:03.193Z,18.5
2017-08-31T08:27:21.889Z,18.6
2017-08-31T08:28:40.555Z,18.7
2017-08-31T08:29:59.223Z,18.8
2017-08-31T08:31:17.951Z,18.9
2017-08-31T08:32:36.659Z,19
2017-08-31T08:33:55.382Z,19
2017-08-31T08:35:14.091Z,19.2
2017-08-31T08:36:32.811Z,19.3
2017-08-31T08:37:51.482Z,19.5
2017-08-31T08:39:10.186Z,19.6
2017-08-31T08:40:28.857Z,19.9
2017-08-31T08:41:47.526Z,20.2
2017-08-31T08:43:06.191Z,20.6
2017-08-31T08:44:24.848Z,20.9
2017-08-31T08:45:43.545Z,21.3
2017-08-31T08:47:02.215Z,21.7
2017-08-31T08:48:20.883Z,21.9
2017-08-31T08:49:39.545Z,22.1
2017-08-31T08:50:58.227Z,22.4
2017-08-31T08:52:16.990Z,22.7
2017-08-31T08:53:35.660Z,22.9
2017-08-31T08:54:54.331Z,23.1
2017-08-31T08:56:13.007Z,23.3
2017-08-31T08:57:31.694Z,23.4
2017-08-31T08:58:50.425Z,23.6
2017-08-31T09:00:09.091Z,23.5
2017-08-31T09:01:27.753Z,23.4
2017-08-31T09:02:46.420Z,23.3
2017-08-31T09:04:05.082Z,23.2
2017-08-31T09:05:23.741Z,23.2
2017-08-31T09:06:42.406Z,23.5
2017-08-31T09:08:01.101Z,24.1
2017-08-31T09:09:19.772Z,24.4
2017-08-31T09:10:38.489Z,24.2
2017-08-31T09:11:57.154Z,23.9
2017-08-31T09:13:15.823Z,23.7
2017-08-31T09:14:34.491Z,23.8
2017-08-31T09:15:53.167Z,23.9
2017-08-31T09:17:11.860Z,23.9
2017-08-31T09:18:30.570Z,23.9
2017-08-31T09:19:49.272Z,23.8
2017-08-31T09:21:07.939Z,23.9
2017-08-31T09:22:26.672Z,23.8
2017-08-31T09:23:45.355Z,23.8
2017-08-31T09:25:04.042Z,24
2017-08-31T09:26:22.709Z,23.9
2017-08-31T09:27:41.397Z,23.7
2017-08-31T09:29:00.072Z,23.3
2017-08-31T09:30:18.742Z,22.9
2017-08-31T09:31:37.452Z,22.4
2017-08-31T09:32:56.118Z,22.2
2017-08-31T09:34:14.789Z,22.1
2017-08-31T09:35:33.460Z,21.9
2017-08-31T09:36:52.146Z,21.6
2017-08-31T09:38:10.818Z,21.5
2017-08-31T09:39:29.495Z,21.5
2017-08-31T09:40:48.165Z,21.7
2017-08-31T09:42:06.856Z,21.8
2017-08-31T09:43:25.560Z,22
2017-08-31T09:44:44.283Z,22.2
2017-08-31T09:46:03.003Z,22.6
2017-08-31T09:47:21.695Z,23
2017-08-31T09:48:40.362Z,23.2
2017-08-31T09:49:59.089Z,23.2
2017-08-31T09:51:17.814Z,23.1
2017-08-31T09:52:36.472Z,23.1
2017-08-31T09:53:55.219Z,23.3
2017-08-31T09:55:13.899Z,23.5
2017-08-31T09:56:32.564Z,23.7
2017-08-31T09:57:51.229Z,23.7
2017-08-31T09:59:09.946Z,23.6
2017-08-31T10:00:28.671Z,23.4
2017-08-31T10:01:47.355Z,23.4
2017-08-31T10:03:06.013Z,23
2017-08-31T10:04:24.670Z,22.9
2017-08-31T10:05:43.405Z,23
2017-08-31T10:07:02.068Z,23.1
2017-08-31T10:08:20.771Z,23.6
2017-08-31T10:09:39.440Z,24.2
2017-08-31T10:10:58.133Z,24.3
2017-08-31T10:12:16.820Z,24.3
2017-08-31T10:13:35.503Z,24
2017-08-31T10:14:54.225Z,24
2017-08-31T10:16:12.934Z,23.9
2017-08-31T10:17:31.632Z,23.7
2017-08-31T10:18:50.299Z,23.9
2017-08-31T10:20:08.975Z,24.4
2017-08-31T10:21:27.657Z,25
2017-08-31T10:22:46.324Z,25.4
2017-08-31T10:24:05.025Z,25.4
2017-08-31T10:25:23.724Z,25.7
2017-08-31T10:26:42.397Z,26
2017-08-31T10:28:01.113Z,25.9
2017-08-31T10:29:19.773Z,26.3
2017-08-31T10:30:38.436Z,26.5
2017-08-31T10:31:57.147Z,26.6
2017-08-31T10:33:15.811Z,26.3
2017-08-31T10:34:34.487Z,26
2017-08-31T10:35:53.179Z,25.6
2017-08-31T10:37:11.882Z,25.3
2017-08-31T10:38:30.560Z,25.1
2017-08-31T10:39:49.229Z,24.8
2017-08-31T10:41:07.896Z,24.7
2017-08-31T10:42:26.596Z,24.6
2017-08-31T10:43:45.257Z,24.5
2017-08-31T10:45:03.925Z,24.2
2017-08-31T10:46:22.626Z,23.9
2017-08-31T10:47:41.318Z,23.8
2017-08-31T10:48:59.985Z,23.7
2017-08-31T10:50:18.651Z,23.6
2017-08-31T10:51:37.325Z,23.4
2017-08-31T10:52:56.010Z,23
2017-08-31T10:54:14.672Z,23
2017-08-31T10:55:33.331Z,23.2
2017-08-31T10:56:52.008Z,23.4
2017-08-31T10:58:10.672Z,23.4
2017-08-31T10:59:29.331Z,23.4
2017-08-31T11:00:48.002Z,23.5
2017-08-31T11:02:06.687Z,23.6
2017-08-31T11:03:25.361Z,23.9
2017-08-31T11:04:44.075Z,24.1
2017-08-31T11:06:02.766Z,24.3
2017-08-31T11:07:21.458Z,24.5
2017-08-31T11:08:40.136Z,25.1
2017-08-31T11:09:58.857Z,25.8
2017-08-31T11:11:17.520Z,26.3
2017-08-31T11:12:36.197Z,26.6
2017-08-31T11:13:54.879Z,27
2017-08-31T11:15:13.547Z,27.1
2017-08-31T11:16:32.211Z,27.4
2017-08-31T11:17:50.879Z,27.6
2017-08-31T11:19:09.551Z,27.5
2017-08-31T11:20:28.258Z,27.3
2017-08-31T11:21:46.923Z,27.3
2017-08-31T11:23:05.609Z,27.6
2017-08-31T11:24:24.291Z,27.8
2017-08-31T11:25:42.993Z,27.4
2017-08-31T11:27:01.696Z,27.3
2017-08-31T11:28:20.498Z,27.5
2017-08-31T11:29:39.264Z,27.8
2017-08-31T11:30:58.139Z,28.3
2017-08-31T11:32:16.948Z,28.8
2017-08-31T11:33:35.687Z,29.3
2017-08-31T11:34:54.495Z,29.3
2017-08-31T11:36:13.284Z,29
2017-08-31T11:37:32.135Z,28.8
2017-08-31T11:38:50.910Z,28.3
2017-08-31T11:40:09.641Z,27.9
2017-08-31T11:41:28.307Z,27.7
2017-08-31T11:42:46.975Z,27.6
2017-08-31T11:44:05.681Z,27.6
2017-08-31T11:45:24.415Z,27.7
2017-08-31T11:46:43.090Z,27.3
2017-08-31T11:48:01.760Z,26.8
2017-08-31T11:49:20.462Z,26.5
2017-08-31T11:50:39.143Z,26.2
2017-08-31T11:51:57.804Z,25.4
2017-08-31T11:53:16.470Z,25
2017-08-31T11:54:35.136Z,24.4
2017-08-31T11:55:53.839Z,23.7
2017-08-31T11:57:12.530Z,23.2
2017-08-31T11:58:31.248Z,22.8
2017-08-31T11:59:49.905Z,22.4
2017-08-31T12:01:08.624Z,22.3
2017-08-31T12:02:27.337Z,22
2017-08-31T12:03:46.014Z,21.6
2017-08-31T12:05:04.677Z,21.1
2017-08-31T12:06:23.366Z,20.9
2017-08-31T12:07:42.035Z,20.5
2017-08-31T12:09:00.696Z,20.3
2017-08-31T12:10:19.368Z,20.2
2017-08-31T12:11:38.078Z,20.3
2017-08-31T12:12:56.745Z,20.3
2017-08-31T12:14:15.413Z,20.4
2017-08-31T12:15:34.128Z,20.9
2017-08-31T12:16:52.800Z,21.5
2017-08-31T12:18:11.516Z,21.5
2017-08-31T12:19:30.181Z,21.3
2017-08-31T12:20:48.849Z,20.7
2017-08-31T12:22:07.519Z,20.5
2017-08-31T12:23:26.211Z,20.3
2017-08-31T12:24:44.918Z,20.5
2017-08-31T12:26:03.579Z,20.8
2017-08-31T12:27:22.319Z,20.9
2017-08-31T12:28:41.028Z,21.3
2017-08-31T12:29:59.697Z,21.8
2017-08-31T12:31:18.360Z,22.4
2017-08-31T12:32:37.036Z,23.2
2017-08-31T12:33:55.729Z,23.5
2017-08-31T12:35:14.452Z,23.2
2017-08-31T12:36:33.167Z,22.7
2017-08-31T12:37:51.846Z,22
2017-08-31T12:39:10.528Z,21.4
2017-08-31T12:40:29.192Z,20.9
2017-08-31T12:41:47.912Z,20.9
2017-08-31T12:43:06.587Z,20.7
2017-08-31T12:44:25.252Z,20.6
2017-08-31T12:45:43.945Z,20.7
2017-08-31T12:47:02.609Z,20.7
2017-08-31T12:48:21.286Z,20.5
2017-08-31T12:49:39.947Z,20.3
2017-08-31T12:50:58.609Z,20.2
2017-08-31T12:52:17.326Z,20.1
2017-08-31T12:53:36.037Z,20.3
2017-08-31T12:54:54.693Z,20.4
2017-08-31T12:56:13.400Z,20.6
2017-08-31T12:57:32.112Z,20.9
2017-08-31T12:58:50.863Z,21.2
2017-08-31T13:00:09.586Z,21.5
2017-08-31T13:01:28.302Z,21.6
2017-08-31T13:02:47.018Z,21.7
2017-08-31T13:04:05.702Z,21.7
2017-08-31T13:05:24.405Z,21.4
2017-08-31T13:06:43.066Z,21
2017-08-31T13:08:01.733Z,20.7
2017-08-31T13:09:20.411Z,20.5
2017-08-31T13:10:39.080Z,20.4
2017-08-31T13:11:57.752Z,20.2
2017-08-31T13:13:16.416Z,20.3
2017-08-31T13:14:35.087Z,20.4
2017-08-31T13:15:53.746Z,20.4
2017-08-31T13:17:12.409Z,20.4
2017-08-31T13:18:31.078Z,20.2
2017-08-31T13:19:49.813Z,20
2017-08-31T13:21:08.498Z,20
2017-08-31T13:22:27.172Z,20
2017-08-31T13:23:45.898Z,20.1
2017-08-31T13:25:04.696Z,20.2
2017-08-31T13:26:23.364Z,20.3
2017-08-31T13:27:42.082Z,20.3
2017-08-31T13:29:00.777Z,20.3
2017-08-31T13:30:19.460Z,20.2
2017-08-31T13:31:38.168Z,20.3
2017-08-31T13:32:56.829Z,20.3
2017-08-31T13:34:15.550Z,20.4
2017-08-31T13:35:34.270Z,20.4
2017-08-31T13:36:52.944Z,20.3
2017-08-31T13:38:11.610Z,20.2
2017-08-31T13:39:30.277Z,20.1
2017-08-31T13:40:48.957Z,19.8
2017-08-31T13:42:07.616Z,19.6
2017-08-31T13:43:26.281Z,19.4
2017-08-31T13:44:44.980Z,19.2
2017-08-31T13:46:03.706Z,19
2017-08-31T13:47:22.376Z,18.7
2017-08-31T13:48:41.095Z,18.5
2017-08-31T13:49:59.757Z,18.4
2017-08-31T13:51:18.433Z,18.3
2017-08-31T13:52:37.093Z,18.3
2017-08-31T13:53:55.787Z,18.2
2017-08-31T13:55:14.461Z,18.1
2017-08-31T13:56:33.180Z,18
2017-08-31T13:57:51.871Z,18
2017-08-31T13:59:10.563Z,18
2017-08-31T14:00:29.235Z,17.9
2017-08-31T14:01:47.913Z,18.1
2017-08-31T14:03:06.580Z,18.1
2017-08-31T14:04:25.253Z,18.1
2017-08-31T14:05:43.915Z,18.1
2017-08-31T14:07:02.622Z,18.2
2017-08-31T14:08:21.290Z,18.2
2017-08-31T14:09:39.956Z,18.1
2017-08-31T14:10:58.618Z,18
2017-08-31T14:12:17.332Z,18
2017-08-31T14:13:36.019Z,17.9
2017-08-31T14:14:54.689Z,17.9
2017-08-31T14:16:13.350Z,17.9
2017-08-31T14:17:32.033Z,17.9
2017-08-31T14:18:50.724Z,18
2017-08-31T14:20:09.438Z,18
2017-08-31T14:21:28.100Z,18
2017-08-31T14:22:46.782Z,18
2017-08-31T14:24:05.522Z,17.8
2017-08-31T14:25:24.191Z,17.8
2017-08-31T14:26:42.866Z,17.8
2017-08-31T14:28:01.537Z,17.8
2017-08-31T14:29:20.211Z,17.7
2017-08-31T14:30:38.941Z,17.7
2017-08-31T14:31:57.613Z,17.5
2017-08-31T14:33:16.287Z,17.3
2017-08-31T14:34:34.953Z,17.3
2017-08-31T14:35:53.612Z,17.3
2017-08-31T14:37:12.284Z,17.3
2017-08-31T14:38:30.977Z,17.1
2017-08-31T14:39:49.702Z,17.1
2017-08-31T14:41:08.394Z,17.1
2017-08-31T14:42:27.060Z,17.1
2017-08-31T14:43:45.768Z,17.1
2017-08-31T14:45:04.474Z,17.1
2017-08-31T14:46:23.150Z,17.1
2017-08-31T14:47:41.841Z,17
2017-08-31T14:49:00.543Z,17
2017-08-31T14:50:19.236Z,17.1
2017-08-31T14:51:37.900Z,17
2017-08-31T14:52:56.571Z,17.1
2017-08-31T14:54:15.247Z,17.1
2017-08-31T14:55:33.943Z,17
2017-08-31T14:56:52.625Z,17
2017-08-31T14:58:11.348Z,17.1
2017-08-31T14:59:30.034Z,17.3
2017-08-31T15:00:48.699Z,17.3
2017-08-31T15:02:07.366Z,17.2
2017-08-31T15:03:26.068Z,17.2
2017-08-31T15:04:44.793Z,17.2
2017-08-31T15:06:03.468Z,17.2
2017-08-31T15:07:22.191Z,17.4
2017-08-31T15:08:40.860Z,17.4
2017-08-31T15:09:59.543Z,17.4
2017-08-31T15:11:18.218Z,17.4
2017-08-31T15:12:36.879Z,17.4
2017-08-31T15:13:55.567Z,17.3
2017-08-31T15:15:14.259Z,17.1
2017-08-31T15:16:32.930Z,16.9
2017-08-31T15:17:51.648Z,16.8
2017-08-31T15:19:10.350Z,16.6
2017-08-31T15:20:29.082Z,16.4
2017-08-31T15:21:47.779Z,16.3
2017-08-31T15:23:06.450Z,16.2
2017-08-31T15:24:25.122Z,16.3
2017-08-31T15:25:43.822Z,16.3
2017-08-31T15:27:02.538Z,16.3
2017-08-31T15:28:21.260Z,16.3
2017-08-31T15:29:39.945Z,16.2
2017-08-31T15:30:58.623Z,16.2
2017-08-31T15:32:17.283Z,16.2
2017-08-31T15:33:35.968Z,16.2
2017-08-31T15:34:54.686Z,16.2
2017-08-31T15:36:13.365Z,16.2
2017-08-31T15:37:32.055Z,16.4
2017-08-31T15:38:50.777Z,16.5
2017-08-31T15:40:09.440Z,16.6
2017-08-31T15:41:28.146Z,16.7
2017-08-31T15:42:46.810Z,16.7
2017-08-31T15:44:05.485Z,16.7
2017-08-31T15:45:24.165Z,16.8
2017-08-31T15:46:42.832Z,16.9
2017-08-31T15:48:01.521Z,17
2017-08-31T15:49:20.206Z,17
2017-08-31T15:50:38.910Z,17
2017-08-31T15:51:57.642Z,17
2017-08-31T15:53:16.322Z,16.9
2017-08-31T15:54:34.995Z,16.8
2017-08-31T15:55:53.714Z,16.8
2017-08-31T15:57:12.385Z,16.8
2017-08-31T15:58:31.050Z,16.9
2017-08-31T15:59:49.745Z,16.8
2017-08-31T16:01:08.412Z,16.7
2017-08-31T16:02:27.140Z,16.6
2017-08-31T16:03:45.804Z,16.6
2017-08-31T16:05:04.466Z,16.5
2017-08-31T16:06:23.135Z,16.5
2017-08-31T16:07:41.841Z,16.4
2017-08-31T16:09:00.524Z,16.4
2017-08-31T16:10:19.190Z,16.3
2017-08-31T16:11:37.909Z,16.3
2017-08-31T16:12:56.636Z,16.2
2017-08-31T16:14:15.331Z,16.2
2017-08-31T16:15:34.000Z,16.1
2017-08-31T16:16:52.664Z,16.1
2017-08-31T16:18:11.335Z,16.1
2017-08-31T16:19:30.016Z,16
2017-08-31T16:20:48.703Z,16
2017-08-31T16:22:07.366Z,16
2017-08-31T16:23:26.053Z,16
2017-08-31T16:24:44.714Z,16
2017-08-31T16:26:03.378Z,16
2017-08-31T16:27:22.038Z,16
2017-08-31T16:28:40.714Z,16
2017-08-31T16:29:59.396Z,15.9
2017-08-31T16:31:18.084Z,15.8
2017-08-31T16:32:36.774Z,15.8
2017-08-31T16:33:55.454Z,15.7
2017-08-31T16:35:14.114Z,15.7
2017-08-31T16:36:32.809Z,15.7
2017-08-31T16:37:51.529Z,15.6
2017-08-31T16:39:10.234Z,15.7
2017-08-31T16:40:28.892Z,15.6
2017-08-31T16:41:47.565Z,15.7
2017-08-31T16:43:06.292Z,15.6
2017-08-31T16:44:24.989Z,15.7
2017-08-31T16:45:43.654Z,15.7
2017-08-31T16:47:02.372Z,15.7
2017-08-31T16:48:21.044Z,15.7
2017-08-31T16:49:39.755Z,15.8
2017-08-31T16:50:58.441Z,15.8
2017-08-31T16:52:17.116Z,15.9
2017-08-31T16:53:35.781Z,15.9
2017-08-31T16:54:54.462Z,15.8
2017-08-31T16:56:13.183Z,15.8
2017-08-31T16:57:31.867Z,15.8
2017-08-31T16:58:50.532Z,15.8
2017-08-31T17:00:09.199Z,15.7
2017-08-31T17:01:27.861Z,15.7
2017-08-31T17:02:46.532Z,15.6
2017-08-31T17:04:05.212Z,15.6
2017-08-31T17:05:23.887Z,15.6
2017-08-31T17:06:42.548Z,15.6
2017-08-31T17:08:01.214Z,15.6
2017-08-31T17:09:19.948Z,15.6
2017-08-31T17:10:38.623Z,15.6
2017-08-31T17:11:57.292Z,15.5
2017-08-31T17:13:15.960Z,15.5
2017-08-31T17:14:34.625Z,15.5
2017-08-31T17:15:53.346Z,15.5
2017-08-31T17:17:12.015Z,15.5
2017-08-31T17:18:30.732Z,15.5
2017-08-31T17:19:49.400Z,15.5
2017-08-31T17:21:08.096Z,15.5
2017-08-31T17:22:26.776Z,15.6
2017-08-31T17:23:45.440Z,15.6
2017-08-31T17:25:04.142Z,15.6
2017-08-31T17:26:22.817Z,15.6
2017-08-31T17:27:41.497Z,15.7
2017-08-31T17:29:00.196Z,15.7
2017-08-31T17:30:18.862Z,15.7
2017-08-31T17:31:37.565Z,15.7
2017-08-31T17:32:56.241Z,15.6
2017-08-31T17:34:14.980Z,15.6
2017-08-31T17:35:33.652Z,15.5